Time;durP1;ratioP1;P1;durP2;ratioP2;P2;SDS_P1;SDS_P2;PMS_P1;PMS_P2;Temp;Humidity;BMP_temperature;BMP_pressure;BME280_temperature;BME280_humidity;BME280_pressure;Samples;Min_cycle;Max_cycle;Signal;HPM_P1;HPM_P2
2021/09/02 00:02:22;;;;;;;4.10;3.70;;;11.60;99.90;;;;;;5053356;28;20709;-65
2021/09/02 00:04:47;;;;;;;4.63;4.30;;;11.50;99.90;;;;;;5064267;28;20638;-66
2021/09/02 00:07:13;;;;;;;5.40;4.90;;;11.40;99.90;;;;;;5073100;28;20223;-64
2021/09/02 00:09:39;;;;;;;4.90;4.33;;;11.40;99.90;;;;;;5073207;28;20629;-66
2021/09/02 00:12:04;;;;;;;6.03;4.80;;;11.50;99.90;;;;;;5072490;28;20197;-63
2021/09/02 00:14:30;;;;;;;5.20;4.33;;;11.40;99.90;;;;;;5053522;28;20650;-64
2021/09/02 00:16:56;;;;;;;4.80;4.00;;;11.50;99.90;;;;;;5052855;28;20493;-64
2021/09/02 00:19:22;;;;;;;4.93;3.95;;;11.50;99.90;;;;;;5053192;28;20448;-64
2021/09/02 00:21:48;;;;;;;5.60;4.80;;;11.50;99.90;;;;;;5053363;28;20188;-63
2021/09/02 00:24:13;;;;;;;6.60;4.70;;;11.40;99.90;;;;;;5053308;28;20181;-64
2021/09/02 00:26:43;;;;;;;4.30;3.90;;;11.40;99.90;;;;;;5052813;28;20252;-65
2021/09/02 00:29:09;;;;;;;5.00;3.70;;;11.40;99.90;;;;;;5053078;28;20529;-63
2021/09/02 00:31:34;;;;;;;8.55;5.22;;;11.40;99.90;;;;;;5052752;28;20646;-65
2021/09/02 00:34:00;;;;;;;4.27;3.80;;;11.40;99.90;;;;;;5053156;28;20193;-64
2021/09/02 00:36:25;;;;;;;5.93;4.77;;;11.40;99.90;;;;;;5051885;28;20174;-64
2021/09/02 00:38:51;;;;;;;4.50;4.10;;;11.40;99.90;;;;;;5056565;28;20197;-65
2021/09/02 00:41:17;;;;;;;9.10;4.40;;;11.30;99.90;;;;;;5071756;28;20182;-66
2021/09/02 00:43:44;;;;;;;4.30;3.83;;;11.30;99.90;;;;;;5060431;28;20425;-65
2021/09/02 00:46:12;;;;;;;5.80;4.45;;;11.30;99.90;;;;;;5052956;28;20217;-63
2021/09/02 00:48:38;;;;;;;5.43;4.80;;;11.20;99.90;;;;;;5052561;28;20284;-66
2021/09/02 00:51:04;;;;;;;5.07;4.40;;;11.20;99.90;;;;;;5052972;28;20276;-64
2021/09/02 00:53:33;;;;;;;5.10;4.77;;;11.20;99.90;;;;;;5062992;28;20169;-65
2021/09/02 00:55:59;;;;;;;4.22;3.80;;;11.20;99.90;;;;;;5072851;28;20207;-65
2021/09/02 00:58:25;;;;;;;5.05;3.88;;;11.20;99.90;;;;;;5072484;28;20184;-66
2021/09/02 01:00:51;;;;;;;5.38;4.13;;;11.10;99.90;;;;;;5071612;28;20255;-64
2021/09/02 01:03:20;;;;;;;4.60;4.03;;;11.10;99.90;;;;;;5067058;28;20761;-63
2021/09/02 01:05:48;;;;;;;5.05;4.30;;;11.10;99.90;;;;;;5056694;28;20178;-64
2021/09/02 01:08:14;;;;;;;4.88;4.35;;;11.00;99.90;;;;;;5056168;28;20182;-65
2021/09/02 01:10:41;;;;;;;4.88;4.32;;;11.00;99.90;;;;;;5056631;28;20215;-65
2021/09/02 01:13:07;;;;;;;5.30;4.13;;;11.00;99.90;;;;;;5063069;28;20176;-65
2021/09/02 01:15:32;;;;;;;5.87;4.53;;;11.00;99.90;;;;;;5076574;28;20173;-64
2021/09/02 01:18:00;;;;;;;5.77;4.60;;;11.00;99.90;;;;;;5076195;28;20758;-67
2021/09/02 01:20:28;;;;;;;5.03;4.45;;;11.00;99.90;;;;;;5074676;28;21046;-65
2021/09/02 01:22:57;;;;;;;5.63;4.70;;;11.00;99.90;;;;;;5076257;28;20189;-65
2021/09/02 01:25:26;;;;;;;4.43;4.03;;;11.00;99.90;;;;;;5076344;28;20180;-64
2021/09/02 01:27:55;;;;;;;4.95;4.55;;;10.90;99.90;;;;;;5074611;28;20349;-66
2021/09/02 01:30:22;;;;;;;4.57;4.13;;;10.90;99.90;;;;;;5063749;28;20564;-64
2021/09/02 01:32:49;;;;;;;5.10;3.80;;;10.90;99.90;;;;;;5056033;28;20296;-66
2021/09/02 01:35:16;;;;;;;4.63;4.10;;;10.90;99.90;;;;;;5056189;28;20169;-65
2021/09/02 01:37:44;;;;;;;5.97;4.90;;;10.90;99.90;;;;;;5058023;28;20178;-65
2021/09/02 01:40:23;;;;;;;5.95;4.90;;;10.80;99.90;;;;;;5076110;28;20209;-66
2021/09/02 01:42:50;;;;;;;4.68;4.22;;;10.80;99.90;;;;;;5076145;28;20726;-66
2021/09/02 01:45:17;;;;;;;4.55;4.10;;;10.80;99.90;;;;;;5076009;28;20689;-66
2021/09/02 01:47:43;;;;;;;6.53;4.40;;;10.80;99.90;;;;;;5072573;28;20321;-64
2021/09/02 01:50:16;;;;;;;4.10;3.70;;;10.70;99.90;;;;;;5055844;28;20193;-66
2021/09/02 01:52:42;;;;;;;4.25;3.88;;;10.70;99.90;;;;;;5056109;28;20229;-65
2021/09/02 01:55:09;;;;;;;5.50;4.40;;;10.70;99.90;;;;;;5071745;28;20191;-64
2021/09/02 01:57:35;;;;;;;5.28;4.53;;;10.60;99.90;;;;;;5075411;28;20404;-66
2021/09/02 02:00:03;;;;;;;4.10;3.70;;;10.60;99.90;;;;;;5075764;28;20189;-65
2021/09/02 02:02:29;;;;;;;4.15;3.78;;;10.60;99.90;;;;;;5067735;28;20189;-64
2021/09/02 02:04:54;;;;;;;5.80;4.17;;;10.60;99.90;;;;;;5055934;28;20176;-64
2021/09/02 02:07:20;;;;;;;5.87;4.70;;;10.60;99.90;;;;;;5055141;28;20187;-65
2021/09/02 02:09:45;;;;;;;5.17;3.70;;;10.60;99.90;;;;;;5055440;28;20205;-64
2021/09/02 02:12:11;;;;;;;4.33;3.77;;;10.60;99.90;;;;;;5060168;28;20701;-64
2021/09/02 02:14:37;;;;;;;6.07;4.80;;;10.50;99.90;;;;;;5075438;28;20173;-65
2021/09/02 02:17:03;;;;;;;4.40;4.00;;;10.50;99.90;;;;;;5075014;28;20637;-65
2021/09/02 02:19:29;;;;;;;4.13;3.70;;;10.50;99.90;;;;;;5075429;28;20247;-63
2021/09/02 02:21:54;;;;;;;6.20;3.80;;;10.40;99.90;;;;;;5070208;28;20461;-66
2021/09/02 02:24:20;;;;;;;4.37;4.00;;;10.40;99.90;;;;;;5055335;28;20171;-65
2021/09/02 02:26:46;;;;;;;4.10;3.30;;;10.40;99.90;;;;;;5054988;28;20663;-66
2021/09/02 02:29:11;;;;;;;4.63;4.23;;;10.40;99.90;;;;;;5055030;28;20734;-67
2021/09/02 02:31:37;;;;;;;5.60;4.43;;;10.40;99.90;;;;;;5056882;28;20220;-66
2021/09/02 02:34:03;;;;;;;4.57;4.00;;;10.30;99.90;;;;;;5075122;28;20643;-65
2021/09/02 02:36:29;;;;;;;3.60;3.30;;;10.30;99.90;;;;;;5075115;28;20247;-66
2021/09/02 02:38:55;;;;;;;6.83;4.43;;;10.30;99.90;;;;;;5074754;28;20532;-66
2021/09/02 02:41:20;;;;;;;5.07;3.85;;;10.30;99.90;;;;;;5075069;28;20767;-63
2021/09/02 02:43:46;;;;;;;4.03;3.67;;;10.30;99.90;;;;;;5054774;28;20185;-66
2021/09/02 02:46:12;;;;;;;5.07;3.73;;;10.30;99.90;;;;;;5054548;28;20180;-64
2021/09/02 02:48:38;;;;;;;4.93;4.47;;;10.30;99.90;;;;;;5053933;28;20634;-66
2021/09/02 02:51:04;;;;;;;5.27;4.17;;;10.30;99.90;;;;;;5055215;28;20280;-64
2021/09/02 02:53:30;;;;;;;4.43;4.03;;;10.30;99.90;;;;;;5054518;28;20404;-65
2021/09/02 02:55:56;;;;;;;4.30;3.73;;;10.30;99.90;;;;;;5054360;28;20574;-63
2021/09/02 02:58:21;;;;;;;4.23;3.87;;;10.30;99.90;;;;;;5054059;28;20181;-65
2021/09/02 03:00:47;;;;;;;4.10;3.53;;;10.30;99.90;;;;;;5060648;28;20176;-66
2021/09/02 03:03:13;;;;;;;3.80;3.50;;;10.30;99.90;;;;;;5074835;28;20165;-65
2021/09/02 03:05:38;;;;;;;4.97;4.57;;;10.20;99.90;;;;;;5074384;28;20640;-65
2021/09/02 03:08:04;;;;;;;4.20;3.87;;;10.20;99.90;;;;;;5073985;28;20179;-64
2021/09/02 03:10:30;;;;;;;6.25;5.00;;;10.20;99.90;;;;;;5066505;28;20177;-65
2021/09/02 03:12:56;;;;;;;5.40;3.90;;;10.10;99.90;;;;;;5054429;28;20676;-65
2021/09/02 03:15:22;;;;;;;5.60;4.10;;;10.10;99.90;;;;;;5054230;28;20382;-63
2021/09/02 03:17:47;;;;;;;5.47;3.35;;;10.10;99.90;;;;;;5053941;28;20177;-64
2021/09/02 03:20:14;;;;;;;4.37;3.97;;;10.10;99.90;;;;;;5058290;28;20643;-66
2021/09/02 03:22:39;;;;;;;3.85;3.22;;;10.10;99.90;;;;;;5074268;28;20171;-63
2021/09/02 03:25:05;;;;;;;4.80;3.67;;;10.10;99.90;;;;;;5073561;28;20169;-66
2021/09/02 03:27:31;;;;;;;4.88;3.72;;;10.10;99.90;;;;;;5073728;28;20775;-65
2021/09/02 03:29:57;;;;;;;5.30;3.83;;;10.00;99.90;;;;;;5071744;28;20188;-65
2021/09/02 03:32:22;;;;;;;4.40;4.00;;;10.10;99.90;;;;;;5053833;28;20544;-64
2021/09/02 03:34:48;;;;;;;4.40;3.80;;;10.00;99.90;;;;;;5054037;28;20248;-65
2021/09/02 03:37:13;;;;;;;4.30;4.00;;;10.00;99.90;;;;;;5053717;28;20569;-66
2021/09/02 03:39:39;;;;;;;3.77;3.20;;;10.00;99.90;;;;;;5063669;28;20189;-66
2021/09/02 03:42:05;;;;;;;3.70;2.97;;;10.00;99.90;;;;;;5072652;28;20176;-65
2021/09/02 03:44:30;;;;;;;4.13;3.73;;;10.00;99.90;;;;;;5073635;28;20169;-64
2021/09/02 03:46:56;;;;;;;4.53;3.63;;;10.00;99.90;;;;;;5073267;28;20164;-65
2021/09/02 03:49:21;;;;;;;4.10;3.80;;;10.00;99.90;;;;;;5064293;28;20293;-64
2021/09/02 03:51:47;;;;;;;4.60;4.10;;;9.90;99.90;;;;;;5053518;28;20196;-66
2021/09/02 03:54:13;;;;;;;4.37;3.67;;;9.90;99.90;;;;;;5053719;28;20268;-64
2021/09/02 03:56:38;;;;;;;5.93;3.93;;;10.00;99.90;;;;;;5053148;28;20596;-65
2021/09/02 03:59:04;;;;;;;4.00;3.33;;;9.90;99.90;;;;;;5058077;28;20250;-65
2021/09/02 04:01:29;;;;;;;4.70;3.90;;;9.90;99.90;;;;;;5073473;28;20169;-65
2021/09/02 04:03:55;;;;;;;4.77;3.87;;;9.90;99.90;;;;;;5073690;28;20172;-65
2021/09/02 04:06:21;;;;;;;4.60;4.20;;;9.80;99.90;;;;;;5073421;28;20248;-65
2021/09/02 04:08:47;;;;;;;3.50;3.20;;;9.80;99.90;;;;;;5069226;28;20250;-66
2021/09/02 04:11:12;;;;;;;3.53;3.30;;;9.80;99.90;;;;;;5053098;28;20200;-65
2021/09/02 04:13:38;;;;;;;3.50;3.23;;;9.80;99.90;;;;;;5051962;28;20176;-65
2021/09/02 04:16:04;;;;;;;4.37;4.07;;;9.80;99.90;;;;;;5053263;28;20498;-66
2021/09/02 04:18:30;;;;;;;3.73;3.27;;;9.80;99.90;;;;;;5052891;28;20185;-66
2021/09/02 04:20:57;;;;;;;4.23;3.83;;;9.80;99.90;;;;;;5072938;28;20183;-65
2021/09/02 04:23:23;;;;;;;9.95;3.97;;;9.80;99.90;;;;;;5073207;28;20184;-65
2021/09/02 04:25:48;;;;;;;3.30;3.10;;;9.70;99.90;;;;;;5073334;28;20242;-64
2021/09/02 04:28:14;;;;;;;3.63;3.33;;;9.70;99.90;;;;;;5072574;28;20402;-66
2021/09/02 04:30:40;;;;;;;5.90;3.77;;;9.70;99.90;;;;;;5055576;28;20235;-64
2021/09/02 04:33:05;;;;;;;6.93;3.67;;;9.70;99.90;;;;;;5052970;28;20636;-65
2021/09/02 04:35:31;;;;;;;3.43;3.07;;;9.60;99.90;;;;;;5053232;28;20176;-64
2021/09/02 04:37:57;;;;;;;4.03;3.60;;;9.70;99.90;;;;;;5056506;28;20165;-66
2021/09/02 04:40:23;;;;;;;8.30;4.90;;;9.60;99.90;;;;;;5074204;28;20196;-66
2021/09/02 04:42:49;;;;;;;6.18;4.78;;;9.60;99.90;;;;;;5076966;28;20180;-64
2021/09/02 04:45:14;;;;;;;6.20;4.27;;;9.60;99.90;;;;;;5077278;28;20638;-65
2021/09/02 04:47:40;;;;;;;3.90;3.07;;;9.60;99.90;;;;;;5076663;28;20161;-65
2021/09/02 04:50:08;;;;;;;3.23;3.03;;;9.70;99.90;;;;;;5076611;28;20441;-67
2021/09/02 04:52:34;;;;;;;4.05;3.42;;;9.60;99.90;;;;;;5076935;28;20196;-65
2021/09/02 04:54:59;;;;;;;3.70;3.40;;;9.60;99.90;;;;;;5076902;28;20512;-64
2021/09/02 04:57:25;;;;;;;4.70;4.10;;;9.60;99.90;;;;;;5076344;28;20260;-65
2021/09/02 04:59:51;;;;;;;3.57;3.13;;;9.70;99.90;;;;;;5065327;28;20721;-66
2021/09/02 05:02:17;;;;;;;3.77;3.40;;;9.70;99.90;;;;;;5056840;28;20178;-64
2021/09/02 05:04:43;;;;;;;4.00;3.63;;;9.70;99.90;;;;;;5055332;28;20520;-65
2021/09/02 05:07:09;;;;;;;6.13;4.53;;;9.80;99.90;;;;;;5056340;28;20307;-66
2021/09/02 05:09:35;;;;;;;4.73;4.20;;;9.90;99.90;;;;;;5065064;28;20201;-64
2021/09/02 05:12:00;;;;;;;5.90;4.20;;;9.90;99.90;;;;;;5076438;28;20200;-65
2021/09/02 05:14:26;;;;;;;4.50;4.10;;;10.00;99.90;;;;;;5076625;28;20468;-66
2021/09/02 05:16:52;;;;;;;8.83;5.13;;;10.20;99.90;;;;;;5076156;28;20562;-65
2021/09/02 05:19:17;;;;;;;5.07;4.57;;;10.20;99.90;;;;;;5070214;28;20201;-65
2021/09/02 05:21:43;;;;;;;4.17;3.77;;;10.20;99.90;;;;;;5056309;28;20177;-68
2021/09/02 05:24:09;;;;;;;5.37;4.83;;;10.30;99.90;;;;;;5055206;28;20169;-65
2021/09/02 05:26:34;;;;;;;5.27;4.77;;;10.40;99.90;;;;;;5056582;28;20256;-67
2021/09/02 05:29:00;;;;;;;4.40;3.80;;;10.50;99.90;;;;;;5056019;28;20722;-65
2021/09/02 05:31:27;;;;;;;5.67;4.03;;;10.50;99.90;;;;;;5074566;28;20222;-64
2021/09/02 05:33:53;;;;;;;7.10;6.15;;;10.50;99.90;;;;;;5058227;28;20177;-64
2021/09/02 05:36:19;;;;;;;6.13;4.38;;;10.50;99.90;;;;;;5060150;28;20177;-66
2021/09/02 05:38:45;;;;;;;11.45;5.38;;;10.50;99.90;;;;;;5068614;28;20189;-66
2021/09/02 05:41:11;;;;;;;5.97;4.83;;;10.60;99.90;;;;;;5056486;28;20544;-67
2021/09/02 05:43:36;;;;;;;6.27;5.53;;;10.60;99.90;;;;;;5074376;28;20558;-64
2021/09/02 05:46:02;;;;;;;6.00;5.40;;;10.60;99.90;;;;;;5075964;28;20399;-64
2021/09/02 05:48:28;;;;;;;6.20;5.70;;;10.70;99.90;;;;;;5066139;28;20243;-66
2021/09/02 05:50:54;;;;;;;5.83;5.20;;;10.70;99.90;;;;;;5055959;28;20205;-63
2021/09/02 05:53:21;;;;;;;7.32;5.32;;;10.80;99.90;;;;;;5058187;28;20720;-66
2021/09/02 05:55:48;;;;;;;5.55;4.55;;;10.90;99.90;;;;;;5055429;28;20477;-64
2021/09/02 05:58:14;;;;;;;8.50;4.95;;;11.00;99.90;;;;;;5068880;28;20699;-67
2021/09/02 06:00:40;;;;;;;6.82;6.22;;;11.20;99.90;;;;;;5073899;28;20196;-63
2021/09/02 06:03:06;;;;;;;7.20;5.47;;;11.30;99.90;;;;;;5073533;28;20373;-64
2021/09/02 06:05:32;;;;;;;7.83;5.00;;;11.40;99.90;;;;;;5064683;28;20337;-65
2021/09/02 06:07:58;;;;;;;6.40;5.50;;;11.50;99.90;;;;;;5084349;28;20500;-67
2021/09/02 06:10:23;;;;;;;7.40;6.70;;;11.80;99.90;;;;;;5075675;28;20427;-67
2021/09/02 06:12:49;;;;;;;12.43;7.80;;;11.80;99.90;;;;;;5077508;28;20547;-67
2021/09/02 06:15:15;;;;;;;12.10;10.90;;;11.90;99.90;;;;;;5061246;28;20232;-66
2021/09/02 06:17:41;;;;;;;12.60;11.30;;;11.90;99.90;;;;;;5062165;28;20563;-64
2021/09/02 06:20:08;;;;;;;7.90;5.60;;;11.90;99.90;;;;;;5069713;28;20446;-63
2021/09/02 06:22:34;;;;;;;8.88;7.75;;;11.90;99.90;;;;;;5070528;28;20231;-69
2021/09/02 06:25:00;;;;;;;8.50;7.30;;;12.00;99.90;;;;;;5073021;28;20181;-68
2021/09/02 06:27:27;;;;;;;7.90;6.13;;;12.20;99.90;;;;;;5070388;28;20178;-64
2021/09/02 06:29:52;;;;;;;5.72;5.13;;;12.30;99.90;;;;;;5069756;28;21243;-63
2021/09/02 06:32:19;;;;;;;4.77;4.30;;;12.40;99.90;;;;;;5072901;28;20214;-65
2021/09/02 06:34:45;;;;;;;5.43;4.57;;;12.60;99.90;;;;;;5081534;28;20236;-65
2021/09/02 06:37:10;;;;;;;5.03;4.53;;;12.80;99.90;;;;;;5072614;28;20412;-63
2021/09/02 06:39:36;;;;;;;4.93;4.50;;;13.00;99.90;;;;;;5074610;28;20433;-64
2021/09/02 06:42:02;;;;;;;4.50;4.10;;;13.10;99.90;;;;;;5079430;28;20181;-63
2021/09/02 06:44:27;;;;;;;5.00;4.60;;;13.30;99.90;;;;;;5072069;28;20188;-65
2021/09/02 06:46:53;;;;;;;4.07;3.53;;;13.40;99.90;;;;;;5083428;28;20203;-65
2021/09/02 06:49:20;;;;;;;4.47;4.07;;;13.50;99.90;;;;;;5070815;28;20669;-63
2021/09/02 06:51:46;;;;;;;7.90;4.77;;;13.60;99.90;;;;;;5071291;28;20264;-65
2021/09/02 06:54:12;;;;;;;5.57;4.57;;;13.70;99.90;;;;;;5069593;28;20758;-66
2021/09/02 06:56:38;;;;;;;4.93;4.43;;;13.90;99.90;;;;;;5068538;28;20429;-65
2021/09/02 06:59:03;;;;;;;4.77;4.23;;;14.10;99.90;;;;;;5066805;28;20438;-65
2021/09/02 07:01:29;;;;;;;5.37;4.90;;;14.20;99.90;;;;;;5076489;28;20218;-64
2021/09/02 07:03:55;;;;;;;6.80;5.23;;;14.30;99.90;;;;;;5070251;28;20193;-63
2021/09/02 07:06:20;;;;;;;4.43;3.97;;;14.50;99.90;;;;;;5077755;28;20176;-62
2021/09/02 07:08:46;;;;;;;5.43;4.93;;;14.90;99.90;;;;;;5094076;28;20274;-64
2021/09/02 07:11:12;;;;;;;5.63;4.00;;;15.30;99.90;;;;;;5074279;28;20203;-64
2021/09/02 07:13:38;;;;;;;4.20;3.80;;;15.60;99.90;;;;;;5065230;28;20169;-64
2021/09/02 07:16:04;;;;;;;4.17;3.60;;;15.90;99.90;;;;;;5067434;28;20770;-64
2021/09/02 07:18:30;;;;;;;5.07;4.20;;;16.10;99.90;;;;;;5057411;28;20323;-66
2021/09/02 07:20:56;;;;;;;3.67;3.37;;;16.30;99.90;;;;;;5072288;28;20470;-63
2021/09/02 07:23:22;;;;;;;4.30;3.90;;;16.50;99.90;;;;;;5093048;28;20653;-63
2021/09/02 07:25:47;;;;;;;4.97;3.93;;;16.50;99.90;;;;;;5086955;28;20415;-63
2021/09/02 07:28:13;;;;;;;4.30;3.77;;;16.70;99.90;;;;;;5057104;28;20175;-63
2021/09/02 07:30:40;;;;;;;4.00;3.63;;;17.00;99.90;;;;;;5068253;28;20381;-70
2021/09/02 07:33:06;;;;;;;2.73;2.53;;;17.20;99.90;;;;;;5070209;28;20204;-67
2021/09/02 07:35:35;;;;;;;4.40;3.77;;;17.40;99.90;;;;;;5070369;28;20506;-63
2021/09/02 07:38:00;;;;;;;3.43;3.13;;;17.50;99.90;;;;;;5071257;28;20169;-65
2021/09/02 07:40:26;;;;;;;4.17;3.30;;;17.70;99.90;;;;;;5082797;28;20758;-63
2021/09/02 07:42:51;;;;;;;4.00;3.60;;;17.70;99.90;;;;;;5070562;28;20188;-62
2021/09/02 07:45:17;;;;;;;3.77;3.47;;;17.80;99.90;;;;;;5071063;28;20197;-64
2021/09/02 07:47:43;;;;;;;3.93;3.13;;;18.00;99.90;;;;;;5068535;28;20191;-65
2021/09/02 07:50:09;;;;;;;3.43;3.13;;;18.20;99.90;;;;;;5073198;28;20283;-64
2021/09/02 07:52:36;;;;;;;3.50;2.93;;;18.60;99.90;;;;;;5073127;28;20622;-64
2021/09/02 07:55:04;;;;;;;6.70;3.20;;;19.30;99.90;;;;;;5073304;28;20411;-65
2021/09/02 07:57:29;;;;;;;4.43;3.10;;;20.30;99.90;;;;;;5065756;28;20443;-63
2021/09/02 07:59:55;;;;;;;4.40;3.63;;;21.60;99.90;;;;;;5071316;28;20435;-66
2021/09/02 08:02:21;;;;;;;4.10;3.50;;;23.00;99.70;;;;;;5071363;28;20220;-65
2021/09/02 08:04:46;;;;;;;3.40;3.10;;;24.10;97.50;;;;;;5070437;28;20199;-65
2021/09/02 08:07:12;;;;;;;3.30;3.10;;;25.20;94.40;;;;;;5069256;28;20274;-66
2021/09/02 08:09:37;;;;;;;4.23;3.90;;;26.00;93.50;;;;;;5069181;28;20528;-71
2021/09/02 08:12:03;;;;;;;4.50;4.10;;;27.00;91.60;;;;;;5068728;28;20208;-64
2021/09/02 08:14:29;;;;;;;4.40;3.67;;;27.70;90.00;;;;;;5069025;28;20708;-64
2021/09/02 08:16:55;;;;;;;6.73;4.77;;;28.10;85.60;;;;;;5068271;28;20203;-65
2021/09/02 08:19:20;;;;;;;5.00;4.50;;;28.20;85.30;;;;;;5071586;28;20663;-64
2021/09/02 08:21:47;;;;;;;6.03;5.63;;;28.80;84.40;;;;;;5070807;28;20213;-64
2021/09/02 08:24:13;;;;;;;4.20;3.80;;;29.50;81.00;;;;;;5069977;28;20177;-63
2021/09/02 08:26:38;;;;;;;4.00;3.60;;;30.10;78.60;;;;;;5067574;28;20952;-71
2021/09/02 08:29:04;;;;;;;4.13;3.80;;;30.40;75.80;;;;;;5077757;28;20200;-63
2021/09/02 08:31:30;;;;;;;5.30;4.80;;;30.60;74.90;;;;;;5082772;28;20211;-61
2021/09/02 08:33:57;;;;;;;4.07;3.77;;;30.70;73.80;;;;;;5092836;28;20216;-62
2021/09/02 08:36:23;;;;;;;4.57;4.17;;;30.60;72.90;;;;;;5080707;28;20420;-62
2021/09/02 08:38:49;;;;;;;4.60;4.20;;;30.70;71.90;;;;;;5052295;28;20200;-62
2021/09/02 08:41:15;;;;;;;4.47;4.07;;;30.90;70.80;;;;;;5060399;28;20183;-63
2021/09/02 08:43:43;;;;;;;3.93;3.63;;;30.90;70.70;;;;;;5072770;28;20169;-64
2021/09/02 08:46:09;;;;;;;4.90;4.47;;;30.90;70.70;;;;;;5067218;28;20434;-64
2021/09/02 08:48:39;;;;;;;6.40;4.40;;;31.30;68.80;;;;;;5072949;28;20436;-64
2021/09/02 08:51:05;;;;;;;4.90;4.50;;;31.60;68.10;;;;;;5069038;28;20930;-63
2021/09/02 08:53:31;;;;;;;4.70;4.27;;;31.80;68.50;;;;;;5070835;28;20647;-63
2021/09/02 08:55:57;;;;;;;4.30;4.00;;;32.10;67.10;;;;;;5067523;28;20256;-62
2021/09/02 08:58:22;;;;;;;4.57;4.27;;;32.50;66.50;;;;;;5081191;28;20468;-63
2021/09/02 09:00:48;;;;;;;4.93;4.20;;;32.60;66.30;;;;;;5070638;28;20252;-62
2021/09/02 09:03:18;;;;;;;5.07;4.57;;;32.90;65.50;;;;;;5077472;28;20411;-62
2021/09/02 09:05:51;;;;;;;4.13;3.83;;;33.30;64.30;;;;;;5068727;28;20177;-72
2021/09/02 09:08:17;;;;;;;5.20;4.20;;;33.40;60.00;;;;;;5067713;28;20453;-63
2021/09/02 09:10:42;;;;;;;3.83;3.53;;;33.30;58.80;;;;;;5071188;28;20465;-62
2021/09/02 09:13:09;;;;;;;6.50;3.70;;;33.40;59.10;;;;;;5079756;28;20200;-62
2021/09/02 09:15:38;;;;;;;3.70;3.40;;;33.50;58.50;;;;;;5071631;28;20277;-63
2021/09/02 09:18:13;;;;;;;4.07;3.77;;;33.20;58.90;;;;;;5071118;28;20560;-65
2021/09/02 09:20:39;;;;;;;4.77;4.20;;;33.20;59.30;;;;;;5072411;28;20485;-68
2021/09/02 09:23:05;;;;;;;4.23;3.87;;;33.60;59.10;;;;;;5070990;28;20430;-67
2021/09/02 09:25:31;;;;;;;4.60;4.27;;;33.80;57.50;;;;;;5079331;28;20410;-68
2021/09/02 09:27:58;;;;;;;4.90;4.50;;;33.90;56.90;;;;;;5068099;28;20176;-64
2021/09/02 09:30:30;;;;;;;4.03;3.73;;;33.70;56.60;;;;;;5068616;28;20169;-63
2021/09/02 09:33:04;;;;;;;4.30;3.93;;;33.20;56.50;;;;;;5073344;28;20510;-68
2021/09/02 09:35:31;;;;;;;3.60;3.30;;;32.30;58.40;;;;;;5076972;28;20441;-69
2021/09/02 09:38:06;;;;;;;4.33;3.70;;;31.90;59.40;;;;;;5069806;28;20419;-69
2021/09/02 09:40:36;;;;;;;3.57;3.30;;;31.80;58.80;;;;;;5071855;28;20411;-67
2021/09/02 09:43:09;;;;;;;3.87;3.57;;;31.80;59.40;;;;;;5071551;28;21371;-66
2021/09/02 09:45:58;;;;;;;3.90;3.60;;;32.00;59.10;;;;;;5082047;28;20431;-66
2021/09/02 09:48:34;;;;;;;3.60;3.30;;;32.50;59.20;;;;;;5011320;28;20444;-62
2021/09/02 09:51:14;;;;;;;4.80;4.40;;;32.80;57.40;;;;;;5013423;28;20413;-61
2021/09/02 09:53:48;;;;;;;4.10;3.80;;;32.80;57.10;;;;;;5013323;28;20490;-62
2021/09/02 09:56:17;;;;;;;4.10;3.77;;;32.50;57.30;;;;;;5013151;28;20389;-63
2021/09/02 09:58:44;;;;;;;4.40;4.10;;;32.30;58.40;;;;;;4996415;28;20604;-62
2021/09/02 10:01:12;;;;;;;4.50;4.10;;;32.70;57.70;;;;;;5013448;28;20433;-62
2021/09/02 10:03:38;;;;;;;4.33;4.03;;;32.60;57.00;;;;;;5012850;28;20425;-63
2021/09/02 10:06:06;;;;;;;3.87;3.43;;;32.30;57.60;;;;;;5015219;28;20970;-62
2021/09/02 10:08:34;;;;;;;4.87;4.20;;;32.10;58.00;;;;;;5010614;28;20424;-62
2021/09/02 10:11:05;;;;;;;4.23;3.87;;;32.10;58.40;;;;;;5002897;28;20384;-63
2021/09/02 10:13:32;;;;;;;3.93;3.63;;;32.10;57.70;;;;;;5015709;28;20417;-62
2021/09/02 10:15:59;;;;;;;3.47;3.27;;;31.80;58.50;;;;;;5011507;28;20434;-62
2021/09/02 10:18:26;;;;;;;4.47;4.07;;;31.40;58.80;;;;;;5009739;28;20408;-62
2021/09/02 10:20:53;;;;;;;4.17;3.87;;;30.70;59.80;;;;;;5009682;28;20381;-66
2021/09/02 10:23:27;;;;;;;4.10;3.70;;;30.30;60.60;;;;;;5015088;28;20737;-63
2021/09/02 10:25:53;;;;;;;3.70;3.40;;;30.10;60.70;;;;;;5048977;28;20401;-62
2021/09/02 10:28:37;;;;;;;4.10;3.80;;;30.00;62.30;;;;;;5070418;28;20783;-63
2021/09/02 10:31:04;;;;;;;3.83;3.53;;;30.00;62.40;;;;;;5071635;28;20535;-64
2021/09/02 10:33:42;;;;;;;4.40;4.00;;;29.90;61.90;;;;;;5071719;28;20408;-63
2021/09/02 10:36:11;;;;;;;3.93;3.53;;;29.60;62.50;;;;;;5074452;28;20425;-65
2021/09/02 10:38:50;;;;;;;3.53;3.23;;;29.40;63.40;;;;;;5074202;28;20406;-62
2021/09/02 10:41:36;;;;;;;5.27;3.20;;;29.60;64.40;;;;;;5073426;28;20497;-63
2021/09/02 10:44:04;;;;;;;4.00;3.70;;;29.30;64.30;;;;;;5074121;28;20377;-63
2021/09/02 10:46:38;;;;;;;4.20;3.90;;;29.50;65.80;;;;;;5076593;28;20748;-69
2021/09/02 10:49:13;;;;;;;3.27;3.07;;;29.70;64.00;;;;;;5076355;28;20434;-64
2021/09/02 10:51:41;;;;;;;3.60;3.30;;;29.60;63.00;;;;;;5069061;28;20516;-64
2021/09/02 10:54:09;;;;;;;3.50;3.20;;;29.30;63.70;;;;;;5070781;28;20438;-63
2021/09/02 10:56:59;;;;;;;3.93;3.47;;;29.00;65.10;;;;;;5071145;28;20477;-63
2021/09/02 10:59:36;;;;;;;3.50;3.20;;;28.90;64.70;;;;;;5062473;28;20471;-62
2021/09/02 11:02:02;;;;;;;3.97;3.47;;;28.50;66.60;;;;;;5074428;28;20796;-64
2021/09/02 11:04:28;;;;;;;3.97;3.60;;;28.50;66.60;;;;;;5067016;28;20391;-62
2021/09/02 11:06:55;;;;;;;3.23;2.93;;;28.50;66.50;;;;;;5069542;28;20386;-64
2021/09/02 11:09:36;;;;;;;3.83;3.53;;;28.50;65.00;;;;;;5063393;28;20937;-65
2021/09/02 11:12:04;;;;;;;3.60;3.30;;;28.10;66.10;;;;;;5071539;28;20415;-63
2021/09/02 11:14:31;;;;;;;3.80;3.40;;;27.20;66.70;;;;;;5055616;28;20413;-61
2021/09/02 11:16:56;;;;;;;4.70;3.00;;;26.40;70.10;;;;;;5062014;28;20921;-62
2021/09/02 11:19:33;;;;;;;2.87;2.60;;;25.90;71.30;;;;;;5080764;28;20435;-62
2021/09/02 11:22:18;;;;;;;3.90;3.00;;;25.20;75.30;;;;;;5073586;28;20207;-61
2021/09/02 11:24:52;;;;;;;2.70;2.50;;;24.70;75.60;;;;;;5071242;28;20389;-62
2021/09/02 11:27:30;;;;;;;3.80;2.90;;;24.40;77.80;;;;;;5071001;28;20989;-61
2021/09/02 11:30:16;;;;;;;3.03;2.70;;;24.10;76.50;;;;;;5065328;28;20415;-61
2021/09/02 11:32:43;;;;;;;2.80;2.43;;;23.90;78.20;;;;;;5079757;28;20431;-62
2021/09/02 11:35:10;;;;;;;3.77;3.40;;;23.70;75.90;;;;;;5068757;28;20526;-64
2021/09/02 11:37:45;;;;;;;2.57;2.37;;;23.50;77.20;;;;;;5074233;28;20405;-63
2021/09/02 11:40:27;;;;;;;3.97;3.60;;;23.30;77.60;;;;;;5062211;28;20528;-67
2021/09/02 11:42:55;;;;;;;4.00;2.90;;;23.20;78.10;;;;;;5068463;28;20440;-67
2021/09/02 11:45:22;;;;;;;3.53;2.80;;;23.10;78.50;;;;;;5062647;28;20409;-61
2021/09/02 11:47:52;;;;;;;2.73;2.57;;;23.10;78.70;;;;;;5059741;28;20402;-61
2021/09/02 11:50:20;;;;;;;3.70;2.90;;;23.10;78.10;;;;;;5065105;28;20484;-62
2021/09/02 11:52:48;;;;;;;2.60;2.40;;;23.10;79.70;;;;;;5071039;28;20459;-63
2021/09/02 11:55:29;;;;;;;3.87;3.30;;;23.10;79.20;;;;;;5068308;28;20513;-62
2021/09/02 11:58:01;;;;;;;2.93;2.60;;;23.10;80.60;;;;;;5067167;28;20411;-68
2021/09/02 12:00:28;;;;;;;3.07;2.77;;;23.10;80.60;;;;;;5064050;28;20475;-63
2021/09/02 12:02:56;;;;;;;5.80;3.27;;;23.10;80.10;;;;;;5069590;28;20451;-63
2021/09/02 12:05:27;;;;;;;2.60;2.40;;;23.10;79.50;;;;;;5083142;28;20490;-62
2021/09/02 12:07:55;;;;;;;3.00;2.80;;;23.20;79.80;;;;;;5072091;28;20945;-68
2021/09/02 12:10:22;;;;;;;3.00;2.23;;;23.10;78.30;;;;;;5066937;28;20527;-63
2021/09/02 12:12:48;;;;;;;3.47;2.77;;;23.10;81.00;;;;;;5091290;28;20983;-66
2021/09/02 12:15:29;;;;;;;2.77;2.40;;;23.00;82.20;;;;;;5093493;28;20760;-65
2021/09/02 12:18:10;;;;;;;3.23;2.93;;;23.20;80.90;;;;;;5081975;28;20411;-65
2021/09/02 12:20:38;;;;;;;2.80;2.50;;;23.20;79.20;;;;;;5065744;28;20409;-62
2021/09/02 12:23:22;;;;;;;3.50;3.20;;;23.20;79.40;;;;;;5068934;28;20483;-62
2021/09/02 12:26:03;;;;;;;3.60;2.30;;;23.20;79.00;;;;;;5072972;28;20483;-64
2021/09/02 12:28:31;;;;;;;2.67;2.43;;;23.30;78.90;;;;;;5072757;28;20793;-63
2021/09/02 12:30:57;;;;;;;3.30;3.00;;;23.30;80.90;;;;;;5072911;28;20782;-62
2021/09/02 12:33:22;;;;;;;2.90;2.60;;;23.40;78.70;;;;;;5071584;28;20431;-66
2021/09/02 12:35:48;;;;;;;3.43;2.70;;;23.40;78.60;;;;;;5073019;28;20414;-63
2021/09/02 12:38:36;;;;;;;2.50;2.30;;;23.30;78.20;;;;;;5072685;28;20531;-66
2021/09/02 12:41:23;;;;;;;2.40;2.20;;;23.30;79.90;;;;;;5054781;28;20179;-65
2021/09/02 12:44:12;;;;;;;2.47;2.27;;;23.40;79.60;;;;;;5053044;28;20404;-66
2021/09/02 12:46:53;;;;;;;2.77;2.53;;;23.40;78.10;;;;;;5052483;28;20460;-63
2021/09/02 12:49:22;;;;;;;2.80;2.60;;;23.40;78.00;;;;;;5056050;28;20438;-65
2021/09/02 12:52:20;;;;;;;2.37;2.07;;;23.40;79.80;;;;;;5073115;28;20394;-63